Axtell, Texas
Current Conditions -  °F | °C
As of 9:55 AM on Saturday 20 Dec 2014 (Local Time) from KCNW Reporting Station
Haze Haze  
Wind Chill: 45°   Ceiling: 800
Heat Index: 48°   Visibility: 5mi
Dew Point: 46°   Wind: 7mph
Humidity: 93%   Direction: 10°N
Pressure: 30.26"   Gusts: NA
Location:  31.66°N, 96.97°W
Report Text: KCNW 201555Z 01006KT 5SM BR OVC008 09/08 A3026
Loading
Personal Weather Stations






























Interactive Weather Map New forecast layout! Learn more

10-Day Weather Forecast

Advertisements
Track Severe Weather on mobile